Date,TemperatureHighF,TemperatureAvgF,TemperatureLowF,DewpointHighF,DewpointAvgF,DewpointLowF,HumidityHigh,HumidityAvg,HumidityLow,PressureMaxIn,PressureMinIn,WindSpeedMaxMPH,WindSpeedAvgMPH,GustSpeedMaxMPH,PrecipitationSumIn
2013-5-1,35,26,20,24,18,13,86,73,51,30.73,30.30,11,1,0,0.17
2013-5-2,57,36,20,24,16,10,72,48,19,30.77,30.33,12,1,12,0.00
2013-5-3,56,43,34,36,24,14,89,51,25,30.34,30.05,13,1,13,0.11
2013-5-4,47,38,33,38,33,30,92,85,63,30.25,30.11,13,1,13,0.24
2013-5-5,55,43,32,38,32,28,91,67,39,30.24,29.99,17,2,17,0.00
2013-5-6,63,48,34,36,30,25,76,53,30,30.01,29.81,14,1,14,0.00
2013-5-7,68,54,40,35,30,26,62,41,24,29.85,29.74,19,2,19,0.00
2013-5-8,62,50,34,38,34,29,83,54,34,30.01,29.84,15,1,15,0.00
2013-5-9,65,50,40,38,31,25,68,51,28,30.07,29.99,18,2,18,0.00
2013-5-10,65,48,32,42,32,26,80,55,27,30.30,30.06,18,1,18,0.03
2013-5-11,67,50,28,38,31,24,86,52,26,30.31,30.07,14,1,16,0.00
2013-5-12,77,62,45,42,35,31,58,38,22,30.08,29.80,17,2,17,0.00
2013-5-13,79,66,52,41,35,31,52,34,19,29.82,29.53,21,2,21,0.00
2013-5-14,69,57,39,45,38,27,83,50,24,29.75,29.55,17,1,17,0.00
2013-5-15,65,51,34,42,31,24,83,50,30,29.87,29.73,14,1,14,0.01
2013-5-16,61,48,39,46,40,35,90,75,54,29.77,29.65,16,1,16,0.10
2013-5-17,50,45,37,46,41,35,92,87,76,29.82,29.74,10,0,0,0.16
2013-5-18,51,42,36,44,39,33,91,87,70,29.89,29.80,14,1,14,0.40
2013-5-19,44,41,39,39,37,34,91,86,75,30.06,29.87,17,2,17,1.16
2013-5-20,55,44,38,40,37,33,92,77,46,30.10,30.01,27,3,27,0.67
2013-5-21,59,45,32,37,31,25,90,63,31,30.08,29.85,12,1,12,0.01
2013-5-22,59,44,31,45,38,27,92,78,50,29.86,29.76,11,1,0,0.48
2013-5-23,61,50,40,50,43,38,93,79,51,29.82,29.62,16,2,16,0.30
2013-5-24,62,49,38,40,27,17,90,47,22,29.87,29.62,21,3,21,0.02
2013-5-25,66,51,37,41,32,22,79,49,27,29.86,29.73,14,1,14,0.00
2013-5-26,65,49,37,48,38,28,87,66,39,29.85,29.71,16,1,16,0.06
2013-5-27,60,48,38,44,36,27,92,64,33,29.81,29.67,21,2,21,0.02
2013-5-28,59,48,40,44,37,30,88,67,49,29.70,29.56,12,1,12,0.61
2013-5-29,47,41,35,43,37,32,92,86,72,29.66,29.58,11,1,0,1.34
2013-5-30,56,46,39,40,34,26,90,65,37,29.73,29.60,15,1,15,0.00
2013-5-31,56,47,41,35,31,26,78,54,38,30.12,29.73,24,3,24,0.01